<?xml version="1.0" encoding="UTF-8" standalone="no" ?>
<gpx xmlns="http://www.topografix.com/GPX/1/1" xmlns:xsi="http://www.w3.org/2001/XMLSchema-instance" xsi:schemaLocation="http://www.topografix.com/GPX/1/1 http://www.topografix.com/GPX/1/1/gpx.xsd" version="1.1" creator="VisuGPX - https://www.visugpx.com">
  <metadata>
    <name>Rando AN-Ath Vosges 02_08_2016 Yvan</name>
    <desc><![CDATA[Les Vosges 2016
Rando du 02/10/2016 guide Yvan]]></desc>
  </metadata>
  <trk>
    <name><![CDATA[10-FEV-16]]></name>
    <trkseg>
      <trkpt lat="47.75749" lon="7.01996">
        <ele>397.162</ele>
        <time>1970-01-01T00:00:01.000Z</time>
      </trkpt>
      <trkpt lat="47.75757" lon="7.01988">
        <ele>386.587</ele>
        <time>1970-01-01T00:00:02.000Z</time>
      </trkpt>
      <trkpt lat="47.75723" lon="7.01919">
        <ele>386.587</ele>
        <time>1970-01-01T00:00:03.000Z</time>
      </trkpt>
      <trkpt lat="47.75716" lon="7.01874">
        <ele>386.587</ele>
        <time>1970-01-01T00:00:04.000Z</time>
      </trkpt>
      <trkpt lat="47.75708" lon="7.01852">
        <ele>386.587</ele>
        <time>1970-01-01T00:00:05.000Z</time>
      </trkpt>
      <trkpt lat="47.75683" lon="7.01834">
        <ele>386.587</ele>
        <time>1970-01-01T00:00:06.000Z</time>
      </trkpt>
      <trkpt lat="47.75668" lon="7.01834">
        <ele>384.184</ele>
        <time>1970-01-01T00:00:07.000Z</time>
      </trkpt>
      <trkpt lat="47.75582" lon="7.01867">
        <ele>384.184</ele>
        <time>1970-01-01T00:00:08.000Z</time>
      </trkpt>
      <trkpt lat="47.75569" lon="7.0189">
        <ele>384.184</ele>
        <time>1970-01-01T00:00:09.000Z</time>
      </trkpt>
      <trkpt lat="47.75529" lon="7.02003">
        <ele>384.184</ele>
        <time>1970-01-01T00:00:10.000Z</time>
      </trkpt>
      <trkpt lat="47.7538" lon="7.02217">
        <ele>385.145</ele>
        <time>1970-01-01T00:00:11.000Z</time>
      </trkpt>
      <trkpt lat="47.75357" lon="7.023">
        <ele>388.029</ele>
        <time>1970-01-01T00:00:12.000Z</time>
      </trkpt>
      <trkpt lat="47.75272" lon="7.0233">
        <ele>391.875</ele>
        <time>1970-01-01T00:00:13.000Z</time>
      </trkpt>
      <trkpt lat="47.75251" lon="7.02375">
        <ele>396.681</ele>
        <time>1970-01-01T00:00:14.000Z</time>
      </trkpt>
      <trkpt lat="47.75243" lon="7.02413">
        <ele>402.93</ele>
        <time>1970-01-01T00:00:15.000Z</time>
      </trkpt>
      <trkpt lat="47.75225" lon="7.02456">
        <ele>403.891</ele>
        <time>1970-01-01T00:00:16.000Z</time>
      </trkpt>
      <trkpt lat="47.75198" lon="7.02488">
        <ele>407.736</ele>
        <time>1970-01-01T00:00:17.000Z</time>
      </trkpt>
      <trkpt lat="47.7516" lon="7.02518">
        <ele>408.217</ele>
        <time>1970-01-01T00:00:18.000Z</time>
      </trkpt>
      <trkpt lat="47.7514" lon="7.02551">
        <ele>411.101</ele>
        <time>1970-01-01T00:00:19.000Z</time>
      </trkpt>
      <trkpt lat="47.75131" lon="7.02589">
        <ele>411.582</ele>
        <time>1970-01-01T00:00:20.000Z</time>
      </trkpt>
      <trkpt lat="47.75134" lon="7.02621">
        <ele>413.504</ele>
        <time>1970-01-01T00:00:21.000Z</time>
      </trkpt>
      <trkpt lat="47.75121" lon="7.02654">
        <ele>416.388</ele>
        <time>1970-01-01T00:00:22.000Z</time>
      </trkpt>
      <trkpt lat="47.74823" lon="7.02875">
        <ele>417.35</ele>
        <time>1970-01-01T00:00:23.000Z</time>
      </trkpt>
      <trkpt lat="47.74809" lon="7.02867">
        <ele>417.83</ele>
        <time>1970-01-01T00:00:24.000Z</time>
      </trkpt>
      <trkpt lat="47.74678" lon="7.02642">
        <ele>419.753</ele>
        <time>1970-01-01T00:00:25.000Z</time>
      </trkpt>
      <trkpt lat="47.74661" lon="7.0262">
        <ele>421.195</ele>
        <time>1970-01-01T00:00:26.000Z</time>
      </trkpt>
      <trkpt lat="47.74622" lon="7.02561">
        <ele>421.195</ele>
        <time>1970-01-01T00:00:27.000Z</time>
      </trkpt>
      <trkpt lat="47.74488" lon="7.024">
        <ele>419.753</ele>
        <time>1970-01-01T00:00:28.000Z</time>
      </trkpt>
      <trkpt lat="47.74401" lon="7.02431">
        <ele>419.753</ele>
        <time>1970-01-01T00:00:29.000Z</time>
      </trkpt>
      <trkpt lat="47.74392" lon="7.02423">
        <ele>421.195</ele>
        <time>1970-01-01T00:00:30.000Z</time>
      </trkpt>
      <trkpt lat="47.74355" lon="7.02298">
        <ele>421.675</ele>
        <time>1970-01-01T00:00:31.000Z</time>
      </trkpt>
      <trkpt lat="47.74343" lon="7.02289">
        <ele>421.675</ele>
        <time>1970-01-01T00:00:32.000Z</time>
      </trkpt>
      <trkpt lat="47.74275" lon="7.02257">
        <ele>421.675</ele>
        <time>1970-01-01T00:00:33.000Z</time>
      </trkpt>
      <trkpt lat="47.74245" lon="7.0223">
        <ele>420.233</ele>
        <time>1970-01-01T00:00:34.000Z</time>
      </trkpt>
      <trkpt lat="47.74137" lon="7.02182">
        <ele>417.83</ele>
        <time>1970-01-01T00:00:35.000Z</time>
      </trkpt>
      <trkpt lat="47.74009" lon="7.02032">
        <ele>417.83</ele>
        <time>1970-01-01T00:00:36.000Z</time>
      </trkpt>
      <trkpt lat="47.7385" lon="7.017">
        <ele>418.792</ele>
        <time>1970-01-01T00:00:37.000Z</time>
      </trkpt>
      <trkpt lat="47.73848" lon="7.01678">
        <ele>418.792</ele>
        <time>1970-01-01T00:00:38.000Z</time>
      </trkpt>
      <trkpt lat="47.73892" lon="7.01531">
        <ele>425.04</ele>
        <time>1970-01-01T00:00:39.000Z</time>
      </trkpt>
      <trkpt lat="47.73917" lon="7.0151">
        <ele>425.04</ele>
        <time>1970-01-01T00:00:40.000Z</time>
      </trkpt>
      <trkpt lat="47.73935" lon="7.01525">
        <ele>425.04</ele>
        <time>1970-01-01T00:00:41.000Z</time>
      </trkpt>
      <trkpt lat="47.73881" lon="7.01503">
        <ele>419.753</ele>
        <time>1970-01-01T00:00:42.000Z</time>
      </trkpt>
      <trkpt lat="47.73815" lon="7.01467">
        <ele>414.946</ele>
        <time>1970-01-01T00:00:43.000Z</time>
      </trkpt>
      <trkpt lat="47.7376" lon="7.01455">
        <ele>414.465</ele>
        <time>1970-01-01T00:00:44.000Z</time>
      </trkpt>
      <trkpt lat="47.73748" lon="7.01455">
        <ele>414.465</ele>
        <time>1970-01-01T00:00:45.000Z</time>
      </trkpt>
      <trkpt lat="47.73739" lon="7.01462">
        <ele>414.465</ele>
        <time>1970-01-01T00:00:46.000Z</time>
      </trkpt>
      <trkpt lat="47.73662" lon="7.01467">
        <ele>414.465</ele>
        <time>1970-01-01T00:00:47.000Z</time>
      </trkpt>
      <trkpt lat="47.73633" lon="7.01387">
        <ele>413.504</ele>
        <time>1970-01-01T00:00:48.000Z</time>
      </trkpt>
      <trkpt lat="47.73708" lon="7.01183">
        <ele>413.504</ele>
        <time>1970-01-01T00:00:49.000Z</time>
      </trkpt>
      <trkpt lat="47.73717" lon="7.01173">
        <ele>412.062</ele>
        <time>1970-01-01T00:00:50.000Z</time>
      </trkpt>
      <trkpt lat="47.73747" lon="7.01181">
        <ele>412.062</ele>
        <time>1970-01-01T00:00:51.000Z</time>
      </trkpt>
      <trkpt lat="47.73773" lon="7.01155">
        <ele>412.062</ele>
        <time>1970-01-01T00:00:52.000Z</time>
      </trkpt>
      <trkpt lat="47.73852" lon="7.01032">
        <ele>423.598</ele>
        <time>1970-01-01T00:00:53.000Z</time>
      </trkpt>
      <trkpt lat="47.73869" lon="7.01015">
        <ele>425.04</ele>
        <time>1970-01-01T00:00:54.000Z</time>
      </trkpt>
      <trkpt lat="47.73919" lon="7.0093">
        <ele>432.25</ele>
        <time>1970-01-01T00:00:55.000Z</time>
      </trkpt>
      <trkpt lat="47.73933" lon="7.00869">
        <ele>432.25</ele>
        <time>1970-01-01T00:00:56.000Z</time>
      </trkpt>
      <trkpt lat="47.73941" lon="7.00857">
        <ele>432.25</ele>
        <time>1970-01-01T00:00:57.000Z</time>
      </trkpt>
      <trkpt lat="47.73959" lon="7.00846">
        <ele>431.289</ele>
        <time>1970-01-01T00:00:58.000Z</time>
      </trkpt>
      <trkpt lat="47.73974" lon="7.00819">
        <ele>431.289</ele>
        <time>1970-01-01T00:00:59.000Z</time>
      </trkpt>
      <trkpt lat="47.73986" lon="7.0077">
        <ele>431.289</ele>
        <time>1970-01-01T00:01:00.000Z</time>
      </trkpt>
      <trkpt lat="47.73998" lon="7.00744">
        <ele>432.731</ele>
        <time>1970-01-01T00:01:01.000Z</time>
      </trkpt>
      <trkpt lat="47.74034" lon="7.00591">
        <ele>433.692</ele>
        <time>1970-01-01T00:01:02.000Z</time>
      </trkpt>
      <trkpt lat="47.74038" lon="7.00478">
        <ele>437.537</ele>
        <time>1970-01-01T00:01:03.000Z</time>
      </trkpt>
      <trkpt lat="47.74057" lon="7.0041">
        <ele>438.979</ele>
        <time>1970-01-01T00:01:04.000Z</time>
      </trkpt>
      <trkpt lat="47.74061" lon="7.00365">
        <ele>439.94</ele>
        <time>1970-01-01T00:01:05.000Z</time>
      </trkpt>
      <trkpt lat="47.74052" lon="7.00339">
        <ele>443.786</ele>
        <time>1970-01-01T00:01:06.000Z</time>
      </trkpt>
      <trkpt lat="47.74055" lon="7.00321">
        <ele>443.786</ele>
        <time>1970-01-01T00:01:07.000Z</time>
      </trkpt>
      <trkpt lat="47.74055" lon="7.00201">
        <ele>443.786</ele>
        <time>1970-01-01T00:01:08.000Z</time>
      </trkpt>
      <trkpt lat="47.74051" lon="7.00165">
        <ele>439.46</ele>
        <time>1970-01-01T00:01:09.000Z</time>
      </trkpt>
      <trkpt lat="47.74033" lon="7.00154">
        <ele>435.615</ele>
        <time>1970-01-01T00:01:10.000Z</time>
      </trkpt>
      <trkpt lat="47.74015" lon="7.00195">
        <ele>435.615</ele>
        <time>1970-01-01T00:01:11.000Z</time>
      </trkpt>
      <trkpt lat="47.73996" lon="7.00211">
        <ele>435.615</ele>
        <time>1970-01-01T00:01:12.000Z</time>
      </trkpt>
      <trkpt lat="47.73983" lon="7.00235">
        <ele>426.001</ele>
        <time>1970-01-01T00:01:13.000Z</time>
      </trkpt>
      <trkpt lat="47.7391" lon="7.00282">
        <ele>426.001</ele>
        <time>1970-01-01T00:01:14.000Z</time>
      </trkpt>
      <trkpt lat="47.73872" lon="7.0028">
        <ele>426.001</ele>
        <time>1970-01-01T00:01:15.000Z</time>
      </trkpt>
      <trkpt lat="47.73839" lon="7.00255">
        <ele>422.156</ele>
        <time>1970-01-01T00:01:16.000Z</time>
      </trkpt>
      <trkpt lat="47.73724" lon="7.00103">
        <ele>417.83</ele>
        <time>1970-01-01T00:01:17.000Z</time>
      </trkpt>
      <trkpt lat="47.73499" lon="6.99727">
        <ele>417.83</ele>
        <time>1970-01-01T00:01:18.000Z</time>
      </trkpt>
      <trkpt lat="47.73442" lon="6.99694">
        <ele>417.83</ele>
        <time>1970-01-01T00:01:19.000Z</time>
      </trkpt>
      <trkpt lat="47.7339" lon="6.99644">
        <ele>417.83</ele>
        <time>1970-01-01T00:01:20.000Z</time>
      </trkpt>
      <trkpt lat="47.73332" lon="6.99494">
        <ele>429.366</ele>
        <time>1970-01-01T00:01:21.000Z</time>
      </trkpt>
      <trkpt lat="47.73331" lon="6.99475">
        <ele>429.366</ele>
        <time>1970-01-01T00:01:22.000Z</time>
      </trkpt>
      <trkpt lat="47.73241" lon="6.99245">
        <ele>429.366</ele>
        <time>1970-01-01T00:01:23.000Z</time>
      </trkpt>
      <trkpt lat="47.73109" lon="6.99052">
        <ele>418.311</ele>
        <time>1970-01-01T00:01:24.000Z</time>
      </trkpt>
      <trkpt lat="47.73015" lon="6.98947">
        <ele>416.388</ele>
        <time>1970-01-01T00:01:25.000Z</time>
      </trkpt>
      <trkpt lat="47.73026" lon="6.9893">
        <ele>416.388</ele>
        <time>1970-01-01T00:01:26.000Z</time>
      </trkpt>
      <trkpt lat="47.73029" lon="6.98903">
        <ele>415.907</ele>
        <time>1970-01-01T00:01:27.000Z</time>
      </trkpt>
      <trkpt lat="47.73012" lon="6.98834">
        <ele>416.388</ele>
        <time>1970-01-01T00:01:28.000Z</time>
      </trkpt>
      <trkpt lat="47.73031" lon="6.98756">
        <ele>417.35</ele>
        <time>1970-01-01T00:01:29.000Z</time>
      </trkpt>
      <trkpt lat="47.73075" lon="6.98725">
        <ele>417.35</ele>
        <time>1970-01-01T00:01:30.000Z</time>
      </trkpt>
      <trkpt lat="47.73125" lon="6.98722">
        <ele>416.388</ele>
        <time>1970-01-01T00:01:31.000Z</time>
      </trkpt>
      <trkpt lat="47.73166" lon="6.98731">
        <ele>418.792</ele>
        <time>1970-01-01T00:01:32.000Z</time>
      </trkpt>
      <trkpt lat="47.73205" lon="6.98726">
        <ele>418.792</ele>
        <time>1970-01-01T00:01:33.000Z</time>
      </trkpt>
      <trkpt lat="47.73293" lon="6.98673">
        <ele>418.792</ele>
        <time>1970-01-01T00:01:34.000Z</time>
      </trkpt>
      <trkpt lat="47.73373" lon="6.98667">
        <ele>431.289</ele>
        <time>1970-01-01T00:01:35.000Z</time>
      </trkpt>
      <trkpt lat="47.73418" lon="6.98574">
        <ele>431.289</ele>
        <time>1970-01-01T00:01:36.000Z</time>
      </trkpt>
      <trkpt lat="47.73447" lon="6.9855">
        <ele>433.692</ele>
        <time>1970-01-01T00:01:37.000Z</time>
      </trkpt>
      <trkpt lat="47.73467" lon="6.98524">
        <ele>436.095</ele>
        <time>1970-01-01T00:01:38.000Z</time>
      </trkpt>
      <trkpt lat="47.73494" lon="6.98502">
        <ele>436.576</ele>
        <time>1970-01-01T00:01:39.000Z</time>
      </trkpt>
      <trkpt lat="47.7351" lon="6.98496">
        <ele>440.421</ele>
        <time>1970-01-01T00:01:40.000Z</time>
      </trkpt>
      <trkpt lat="47.73547" lon="6.98457">
        <ele>444.266</ele>
        <time>1970-01-01T00:01:41.000Z</time>
      </trkpt>
      <trkpt lat="47.73632" lon="6.98382">
        <ele>446.189</ele>
        <time>1970-01-01T00:01:42.000Z</time>
      </trkpt>
      <trkpt lat="47.73643" lon="6.98382">
        <ele>446.67</ele>
        <time>1970-01-01T00:01:43.000Z</time>
      </trkpt>
      <trkpt lat="47.73684" lon="6.98335">
        <ele>446.67</ele>
        <time>1970-01-01T00:01:44.000Z</time>
      </trkpt>
      <trkpt lat="47.73665" lon="6.98282">
        <ele>448.112</ele>
        <time>1970-01-01T00:01:45.000Z</time>
      </trkpt>
      <trkpt lat="47.73666" lon="6.98298">
        <ele>452.918</ele>
        <time>1970-01-01T00:01:46.000Z</time>
      </trkpt>
      <trkpt lat="47.73653" lon="6.98189">
        <ele>457.244</ele>
        <time>1970-01-01T00:01:47.000Z</time>
      </trkpt>
      <trkpt lat="47.7352" lon="6.98093">
        <ele>458.206</ele>
        <time>1970-01-01T00:01:48.000Z</time>
      </trkpt>
      <trkpt lat="47.73485" lon="6.97998">
        <ele>458.206</ele>
        <time>1970-01-01T00:01:49.000Z</time>
      </trkpt>
      <trkpt lat="47.73381" lon="6.97894">
        <ele>457.244</ele>
        <time>1970-01-01T00:01:50.000Z</time>
      </trkpt>
      <trkpt lat="47.73333" lon="6.97805">
        <ele>457.725</ele>
        <time>1970-01-01T00:01:51.000Z</time>
      </trkpt>
      <trkpt lat="47.7337" lon="6.97738">
        <ele>458.206</ele>
        <time>1970-01-01T00:01:52.000Z</time>
      </trkpt>
      <trkpt lat="47.73421" lon="6.97593">
        <ele>457.725</ele>
        <time>1970-01-01T00:01:53.000Z</time>
      </trkpt>
      <trkpt lat="47.73438" lon="6.9757">
        <ele>455.802</ele>
        <time>1970-01-01T00:01:54.000Z</time>
      </trkpt>
      <trkpt lat="47.73452" lon="6.97559">
        <ele>457.725</ele>
        <time>1970-01-01T00:01:55.000Z</time>
      </trkpt>
      <trkpt lat="47.73466" lon="6.97558">
        <ele>458.206</ele>
        <time>1970-01-01T00:01:56.000Z</time>
      </trkpt>
      <trkpt lat="47.73558" lon="6.9762">
        <ele>458.206</ele>
        <time>1970-01-01T00:01:57.000Z</time>
      </trkpt>
      <trkpt lat="47.73571" lon="6.97619">
        <ele>458.206</ele>
        <time>1970-01-01T00:01:58.000Z</time>
      </trkpt>
      <trkpt lat="47.73588" lon="6.97611">
        <ele>458.686</ele>
        <time>1970-01-01T00:01:59.000Z</time>
      </trkpt>
      <trkpt lat="47.73721" lon="6.97468">
        <ele>460.609</ele>
        <time>1970-01-01T00:02:00.000Z</time>
      </trkpt>
      <trkpt lat="47.7361" lon="6.97132">
        <ele>460.609</ele>
        <time>1970-01-01T00:02:01.000Z</time>
      </trkpt>
      <trkpt lat="47.73621" lon="6.97059">
        <ele>460.609</ele>
        <time>1970-01-01T00:02:02.000Z</time>
      </trkpt>
      <trkpt lat="47.73663" lon="6.96988">
        <ele>460.609</ele>
        <time>1970-01-01T00:02:03.000Z</time>
      </trkpt>
      <trkpt lat="47.73662" lon="6.96964">
        <ele>458.686</ele>
        <time>1970-01-01T00:02:04.000Z</time>
      </trkpt>
      <trkpt lat="47.73621" lon="6.96889">
        <ele>458.686</ele>
        <time>1970-01-01T00:02:05.000Z</time>
      </trkpt>
      <trkpt lat="47.73592" lon="6.96873">
        <ele>459.167</ele>
        <time>1970-01-01T00:02:06.000Z</time>
      </trkpt>
      <trkpt lat="47.73563" lon="6.96876">
        <ele>458.686</ele>
        <time>1970-01-01T00:02:07.000Z</time>
      </trkpt>
      <trkpt lat="47.7356" lon="6.96851">
        <ele>456.283</ele>
        <time>1970-01-01T00:02:08.000Z</time>
      </trkpt>
      <trkpt lat="47.73577" lon="6.96831">
        <ele>459.167</ele>
        <time>1970-01-01T00:02:09.000Z</time>
      </trkpt>
      <trkpt lat="47.73596" lon="6.96784">
        <ele>459.167</ele>
        <time>1970-01-01T00:02:10.000Z</time>
      </trkpt>
      <trkpt lat="47.73571" lon="6.96738">
        <ele>455.802</ele>
        <time>1970-01-01T00:02:11.000Z</time>
      </trkpt>
      <trkpt lat="47.73558" lon="6.96772">
        <ele>454.36</ele>
        <time>1970-01-01T00:02:12.000Z</time>
      </trkpt>
      <trkpt lat="47.73554" lon="6.96792">
        <ele>459.167</ele>
        <time>1970-01-01T00:02:13.000Z</time>
      </trkpt>
      <trkpt lat="47.73581" lon="6.9674">
        <ele>449.073</ele>
        <time>1970-01-01T00:02:14.000Z</time>
      </trkpt>
      <trkpt lat="47.73555" lon="6.96784">
        <ele>449.073</ele>
        <time>1970-01-01T00:02:15.000Z</time>
      </trkpt>
      <trkpt lat="47.73566" lon="6.96764">
        <ele>450.996</ele>
        <time>1970-01-01T00:02:16.000Z</time>
      </trkpt>
      <trkpt lat="47.73577" lon="6.96759">
        <ele>454.36</ele>
        <time>1970-01-01T00:02:17.000Z</time>
      </trkpt>
      <trkpt lat="47.73592" lon="6.96791">
        <ele>454.36</ele>
        <time>1970-01-01T00:02:18.000Z</time>
      </trkpt>
      <trkpt lat="47.73584" lon="6.96816">
        <ele>454.841</ele>
        <time>1970-01-01T00:02:19.000Z</time>
      </trkpt>
      <trkpt lat="47.73567" lon="6.96838">
        <ele>454.841</ele>
        <time>1970-01-01T00:02:20.000Z</time>
      </trkpt>
      <trkpt lat="47.73569" lon="6.9687">
        <ele>459.167</ele>
        <time>1970-01-01T00:02:21.000Z</time>
      </trkpt>
      <trkpt lat="47.73579" lon="6.96875">
        <ele>456.764</ele>
        <time>1970-01-01T00:02:22.000Z</time>
      </trkpt>
      <trkpt lat="47.7359" lon="6.96865">
        <ele>456.764</ele>
        <time>1970-01-01T00:02:23.000Z</time>
      </trkpt>
      <trkpt lat="47.73607" lon="6.96879">
        <ele>459.167</ele>
        <time>1970-01-01T00:02:24.000Z</time>
      </trkpt>
      <trkpt lat="47.73646" lon="6.96871">
        <ele>463.493</ele>
        <time>1970-01-01T00:02:25.000Z</time>
      </trkpt>
      <trkpt lat="47.73698" lon="6.96874">
        <ele>464.454</ele>
        <time>1970-01-01T00:02:26.000Z</time>
      </trkpt>
      <trkpt lat="47.73706" lon="6.9688">
        <ele>464.935</ele>
        <time>1970-01-01T00:02:27.000Z</time>
      </trkpt>
      <trkpt lat="47.7378" lon="6.96839">
        <ele>467.819</ele>
        <time>1970-01-01T00:02:28.000Z</time>
      </trkpt>
      <trkpt lat="47.73796" lon="6.96838">
        <ele>467.819</ele>
        <time>1970-01-01T00:02:29.000Z</time>
      </trkpt>
      <trkpt lat="47.73821" lon="6.96846">
        <ele>473.587</ele>
        <time>1970-01-01T00:02:30.000Z</time>
      </trkpt>
      <trkpt lat="47.7383" lon="6.96843">
        <ele>473.587</ele>
        <time>1970-01-01T00:02:31.000Z</time>
      </trkpt>
      <trkpt lat="47.73861" lon="6.96812">
        <ele>474.067</ele>
        <time>1970-01-01T00:02:32.000Z</time>
      </trkpt>
      <trkpt lat="47.73967" lon="6.96779">
        <ele>478.874</ele>
        <time>1970-01-01T00:02:33.000Z</time>
      </trkpt>
      <trkpt lat="47.7399" lon="6.96768">
        <ele>485.603</ele>
        <time>1970-01-01T00:02:34.000Z</time>
      </trkpt>
      <trkpt lat="47.74008" lon="6.96754">
        <ele>496.178</ele>
        <time>1970-01-01T00:02:35.000Z</time>
      </trkpt>
      <trkpt lat="47.74063" lon="6.96738">
        <ele>499.062</ele>
        <time>1970-01-01T00:02:36.000Z</time>
      </trkpt>
      <trkpt lat="47.74096" lon="6.96743">
        <ele>500.023</ele>
        <time>1970-01-01T00:02:37.000Z</time>
      </trkpt>
      <trkpt lat="47.74113" lon="6.96739">
        <ele>506.271</ele>
        <time>1970-01-01T00:02:38.000Z</time>
      </trkpt>
      <trkpt lat="47.74112" lon="6.96745">
        <ele>510.117</ele>
        <time>1970-01-01T00:02:39.000Z</time>
      </trkpt>
      <trkpt lat="47.74164" lon="6.96759">
        <ele>512.52</ele>
        <time>1970-01-01T00:02:40.000Z</time>
      </trkpt>
      <trkpt lat="47.74201" lon="6.9678">
        <ele>519.249</ele>
        <time>1970-01-01T00:02:41.000Z</time>
      </trkpt>
      <trkpt lat="47.74221" lon="6.9676">
        <ele>519.73</ele>
        <time>1970-01-01T00:02:42.000Z</time>
      </trkpt>
      <trkpt lat="47.74221" lon="6.96728">
        <ele>525.498</ele>
        <time>1970-01-01T00:02:43.000Z</time>
      </trkpt>
      <trkpt lat="47.74217" lon="6.96746">
        <ele>526.94</ele>
        <time>1970-01-01T00:02:44.000Z</time>
      </trkpt>
      <trkpt lat="47.74227" lon="6.96709">
        <ele>535.111</ele>
        <time>1970-01-01T00:02:45.000Z</time>
      </trkpt>
      <trkpt lat="47.74265" lon="6.96621">
        <ele>553.376</ele>
        <time>1970-01-01T00:02:46.000Z</time>
      </trkpt>
      <trkpt lat="47.74297" lon="6.96636">
        <ele>557.221</ele>
        <time>1970-01-01T00:02:47.000Z</time>
      </trkpt>
      <trkpt lat="47.74305" lon="6.96648">
        <ele>562.509</ele>
        <time>1970-01-01T00:02:48.000Z</time>
      </trkpt>
      <trkpt lat="47.74297" lon="6.96654">
        <ele>566.834</ele>
        <time>1970-01-01T00:02:49.000Z</time>
      </trkpt>
      <trkpt lat="47.7429" lon="6.96638">
        <ele>567.796</ele>
        <time>1970-01-01T00:02:50.000Z</time>
      </trkpt>
      <trkpt lat="47.74313" lon="6.9666">
        <ele>570.199</ele>
        <time>1970-01-01T00:02:51.000Z</time>
      </trkpt>
      <trkpt lat="47.74342" lon="6.96671">
        <ele>570.68</ele>
        <time>1970-01-01T00:02:52.000Z</time>
      </trkpt>
      <trkpt lat="47.7435" lon="6.96681">
        <ele>570.68</ele>
        <time>1970-01-01T00:02:53.000Z</time>
      </trkpt>
      <trkpt lat="47.7437" lon="6.96654">
        <ele>574.525</ele>
        <time>1970-01-01T00:02:54.000Z</time>
      </trkpt>
      <trkpt lat="47.74407" lon="6.9664">
        <ele>578.37</ele>
        <time>1970-01-01T00:02:55.000Z</time>
      </trkpt>
      <trkpt lat="47.74434" lon="6.96576">
        <ele>597.116</ele>
        <time>1970-01-01T00:02:56.000Z</time>
      </trkpt>
      <trkpt lat="47.74438" lon="6.96561">
        <ele>600.481</ele>
        <time>1970-01-01T00:02:57.000Z</time>
      </trkpt>
      <trkpt lat="47.74435" lon="6.96508">
        <ele>608.171</ele>
        <time>1970-01-01T00:02:58.000Z</time>
      </trkpt>
      <trkpt lat="47.74451" lon="6.96468">
        <ele>608.171</ele>
        <time>1970-01-01T00:02:59.000Z</time>
      </trkpt>
      <trkpt lat="47.74448" lon="6.96451">
        <ele>613.939</ele>
        <time>1970-01-01T00:03:00.000Z</time>
      </trkpt>
      <trkpt lat="47.74453" lon="6.96431">
        <ele>608.171</ele>
        <time>1970-01-01T00:03:01.000Z</time>
      </trkpt>
      <trkpt lat="47.7445" lon="6.96402">
        <ele>611.055</ele>
        <time>1970-01-01T00:03:02.000Z</time>
      </trkpt>
      <trkpt lat="47.74457" lon="6.96378">
        <ele>611.055</ele>
        <time>1970-01-01T00:03:03.000Z</time>
      </trkpt>
      <trkpt lat="47.74441" lon="6.96313">
        <ele>617.784</ele>
        <time>1970-01-01T00:03:04.000Z</time>
      </trkpt>
      <trkpt lat="47.74423" lon="6.96261">
        <ele>624.514</ele>
        <time>1970-01-01T00:03:05.000Z</time>
      </trkpt>
      <trkpt lat="47.74438" lon="6.96213">
        <ele>624.514</ele>
        <time>1970-01-01T00:03:06.000Z</time>
      </trkpt>
      <trkpt lat="47.74429" lon="6.96233">
        <ele>626.436</ele>
        <time>1970-01-01T00:03:07.000Z</time>
      </trkpt>
      <trkpt lat="47.74457" lon="6.96221">
        <ele>629.32</ele>
        <time>1970-01-01T00:03:08.000Z</time>
      </trkpt>
      <trkpt lat="47.7447" lon="6.96225">
        <ele>631.723</ele>
        <time>1970-01-01T00:03:09.000Z</time>
      </trkpt>
      <trkpt lat="47.74563" lon="6.96257">
        <ele>642.298</ele>
        <time>1970-01-01T00:03:10.000Z</time>
      </trkpt>
      <trkpt lat="47.7458" lon="6.96257">
        <ele>645.663</ele>
        <time>1970-01-01T00:03:11.000Z</time>
      </trkpt>
      <trkpt lat="47.74583" lon="6.96273">
        <ele>646.143</ele>
        <time>1970-01-01T00:03:12.000Z</time>
      </trkpt>
      <trkpt lat="47.74575" lon="6.96291">
        <ele>646.143</ele>
        <time>1970-01-01T00:03:13.000Z</time>
      </trkpt>
      <trkpt lat="47.74577" lon="6.96313">
        <ele>648.066</ele>
        <time>1970-01-01T00:03:14.000Z</time>
      </trkpt>
      <trkpt lat="47.74563" lon="6.96294">
        <ele>648.066</ele>
        <time>1970-01-01T00:03:15.000Z</time>
      </trkpt>
      <trkpt lat="47.74573" lon="6.96303">
        <ele>648.546</ele>
        <time>1970-01-01T00:03:16.000Z</time>
      </trkpt>
      <trkpt lat="47.74572" lon="6.96308">
        <ele>655.276</ele>
        <time>1970-01-01T00:03:17.000Z</time>
      </trkpt>
      <trkpt lat="47.74591" lon="6.96324">
        <ele>655.276</ele>
        <time>1970-01-01T00:03:18.000Z</time>
      </trkpt>
      <trkpt lat="47.74622" lon="6.96336">
        <ele>659.121</ele>
        <time>1970-01-01T00:03:19.000Z</time>
      </trkpt>
      <trkpt lat="47.7464" lon="6.96396">
        <ele>673.541</ele>
        <time>1970-01-01T00:03:20.000Z</time>
      </trkpt>
      <trkpt lat="47.7465" lon="6.96402">
        <ele>676.425</ele>
        <time>1970-01-01T00:03:21.000Z</time>
      </trkpt>
      <trkpt lat="47.74676" lon="6.96449">
        <ele>688.441</ele>
        <time>1970-01-01T00:03:22.000Z</time>
      </trkpt>
      <trkpt lat="47.74672" lon="6.96467">
        <ele>689.403</ele>
        <time>1970-01-01T00:03:23.000Z</time>
      </trkpt>
      <trkpt lat="47.74682" lon="6.96473">
        <ele>693.248</ele>
        <time>1970-01-01T00:03:24.000Z</time>
      </trkpt>
      <trkpt lat="47.74684" lon="6.96486">
        <ele>697.093</ele>
        <time>1970-01-01T00:03:25.000Z</time>
      </trkpt>
      <trkpt lat="47.74704" lon="6.96501">
        <ele>701.419</ele>
        <time>1970-01-01T00:03:26.000Z</time>
      </trkpt>
      <trkpt lat="47.74708" lon="6.96522">
        <ele>703.342</ele>
        <time>1970-01-01T00:03:27.000Z</time>
      </trkpt>
      <trkpt lat="47.74702" lon="6.96544">
        <ele>707.668</ele>
        <time>1970-01-01T00:03:28.000Z</time>
      </trkpt>
      <trkpt lat="47.74703" lon="6.96567">
        <ele>713.916</ele>
        <time>1970-01-01T00:03:29.000Z</time>
      </trkpt>
      <trkpt lat="47.74739" lon="6.96598">
        <ele>723.049</ele>
        <time>1970-01-01T00:03:30.000Z</time>
      </trkpt>
      <trkpt lat="47.7475" lon="6.96631">
        <ele>730.259</ele>
        <time>1970-01-01T00:03:31.000Z</time>
      </trkpt>
      <trkpt lat="47.7476" lon="6.96645">
        <ele>731.7</ele>
        <time>1970-01-01T00:03:32.000Z</time>
      </trkpt>
      <trkpt lat="47.74752" lon="6.96633">
        <ele>733.623</ele>
        <time>1970-01-01T00:03:33.000Z</time>
      </trkpt>
      <trkpt lat="47.74763" lon="6.96657">
        <ele>733.623</ele>
        <time>1970-01-01T00:03:34.000Z</time>
      </trkpt>
      <trkpt lat="47.74754" lon="6.96661">
        <ele>733.623</ele>
        <time>1970-01-01T00:03:35.000Z</time>
      </trkpt>
      <trkpt lat="47.74759" lon="6.96696">
        <ele>730.739</ele>
        <time>1970-01-01T00:03:36.000Z</time>
      </trkpt>
      <trkpt lat="47.74778" lon="6.96722">
        <ele>730.739</ele>
        <time>1970-01-01T00:03:37.000Z</time>
      </trkpt>
      <trkpt lat="47.74792" lon="6.96756">
        <ele>730.739</ele>
        <time>1970-01-01T00:03:38.000Z</time>
      </trkpt>
      <trkpt lat="47.74853" lon="6.96802">
        <ele>743.236</ele>
        <time>1970-01-01T00:03:39.000Z</time>
      </trkpt>
      <trkpt lat="47.7487" lon="6.9682">
        <ele>746.12</ele>
        <time>1970-01-01T00:03:40.000Z</time>
      </trkpt>
      <trkpt lat="47.74977" lon="6.96968">
        <ele>762.463</ele>
        <time>1970-01-01T00:03:41.000Z</time>
      </trkpt>
      <trkpt lat="47.7499" lon="6.96997">
        <ele>764.385</ele>
        <time>1970-01-01T00:03:42.000Z</time>
      </trkpt>
      <trkpt lat="47.74998" lon="6.97001">
        <ele>768.711</ele>
        <time>1970-01-01T00:03:43.000Z</time>
      </trkpt>
      <trkpt lat="47.75009" lon="6.97022">
        <ele>771.595</ele>
        <time>1970-01-01T00:03:44.000Z</time>
      </trkpt>
      <trkpt lat="47.75049" lon="6.97085">
        <ele>778.805</ele>
        <time>1970-01-01T00:03:45.000Z</time>
      </trkpt>
      <trkpt lat="47.75069" lon="6.9712">
        <ele>780.247</ele>
        <time>1970-01-01T00:03:46.000Z</time>
      </trkpt>
      <trkpt lat="47.75071" lon="6.97132">
        <ele>783.612</ele>
        <time>1970-01-01T00:03:47.000Z</time>
      </trkpt>
      <trkpt lat="47.75079" lon="6.97134">
        <ele>786.496</ele>
        <time>1970-01-01T00:03:48.000Z</time>
      </trkpt>
      <trkpt lat="47.75137" lon="6.97211">
        <ele>789.86</ele>
        <time>1970-01-01T00:03:49.000Z</time>
      </trkpt>
      <trkpt lat="47.75163" lon="6.97221">
        <ele>791.302</ele>
        <time>1970-01-01T00:03:50.000Z</time>
      </trkpt>
      <trkpt lat="47.7515" lon="6.97239">
        <ele>802.357</ele>
        <time>1970-01-01T00:03:51.000Z</time>
      </trkpt>
      <trkpt lat="47.75159" lon="6.97212">
        <ele>802.357</ele>
        <time>1970-01-01T00:03:52.000Z</time>
      </trkpt>
      <trkpt lat="47.75152" lon="6.97224">
        <ele>802.357</ele>
        <time>1970-01-01T00:03:53.000Z</time>
      </trkpt>
      <trkpt lat="47.75145" lon="6.97307">
        <ele>788.899</ele>
        <time>1970-01-01T00:03:54.000Z</time>
      </trkpt>
      <trkpt lat="47.7513" lon="6.97354">
        <ele>788.899</ele>
        <time>1970-01-01T00:03:55.000Z</time>
      </trkpt>
      <trkpt lat="47.75129" lon="6.97372">
        <ele>786.976</ele>
        <time>1970-01-01T00:03:56.000Z</time>
      </trkpt>
      <trkpt lat="47.75142" lon="6.97365">
        <ele>788.899</ele>
        <time>1970-01-01T00:03:57.000Z</time>
      </trkpt>
      <trkpt lat="47.75119" lon="6.97417">
        <ele>788.899</ele>
        <time>1970-01-01T00:03:58.000Z</time>
      </trkpt>
      <trkpt lat="47.75108" lon="6.97424">
        <ele>791.302</ele>
        <time>1970-01-01T00:03:59.000Z</time>
      </trkpt>
      <trkpt lat="47.75098" lon="6.97502">
        <ele>789.38</ele>
        <time>1970-01-01T00:04:00.000Z</time>
      </trkpt>
      <trkpt lat="47.75103" lon="6.97559">
        <ele>789.38</ele>
        <time>1970-01-01T00:04:01.000Z</time>
      </trkpt>
      <trkpt lat="47.75094" lon="6.976">
        <ele>782.651</ele>
        <time>1970-01-01T00:04:02.000Z</time>
      </trkpt>
      <trkpt lat="47.751" lon="6.97615">
        <ele>782.651</ele>
        <time>1970-01-01T00:04:03.000Z</time>
      </trkpt>
      <trkpt lat="47.75105" lon="6.97645">
        <ele>782.651</ele>
        <time>1970-01-01T00:04:04.000Z</time>
      </trkpt>
      <trkpt lat="47.75119" lon="6.97681">
        <ele>773.999</ele>
        <time>1970-01-01T00:04:05.000Z</time>
      </trkpt>
      <trkpt lat="47.75118" lon="6.97709">
        <ele>772.557</ele>
        <time>1970-01-01T00:04:06.000Z</time>
      </trkpt>
      <trkpt lat="47.75134" lon="6.97771">
        <ele>765.347</ele>
        <time>1970-01-01T00:04:07.000Z</time>
      </trkpt>
      <trkpt lat="47.75135" lon="6.9782">
        <ele>754.772</ele>
        <time>1970-01-01T00:04:08.000Z</time>
      </trkpt>
      <trkpt lat="47.75143" lon="6.97833">
        <ele>746.601</ele>
        <time>1970-01-01T00:04:09.000Z</time>
      </trkpt>
      <trkpt lat="47.75141" lon="6.97853">
        <ele>741.794</ele>
        <time>1970-01-01T00:04:10.000Z</time>
      </trkpt>
      <trkpt lat="47.75146" lon="6.97884">
        <ele>732.181</ele>
        <time>1970-01-01T00:04:11.000Z</time>
      </trkpt>
      <trkpt lat="47.75137" lon="6.97926">
        <ele>724.01</ele>
        <time>1970-01-01T00:04:12.000Z</time>
      </trkpt>
      <trkpt lat="47.75148" lon="6.97957">
        <ele>723.049</ele>
        <time>1970-01-01T00:04:13.000Z</time>
      </trkpt>
      <trkpt lat="47.75143" lon="6.97991">
        <ele>710.552</ele>
        <time>1970-01-01T00:04:14.000Z</time>
      </trkpt>
      <trkpt lat="47.75147" lon="6.9801">
        <ele>709.59</ele>
        <time>1970-01-01T00:04:15.000Z</time>
      </trkpt>
      <trkpt lat="47.75133" lon="6.98013">
        <ele>709.59</ele>
        <time>1970-01-01T00:04:16.000Z</time>
      </trkpt>
      <trkpt lat="47.75134" lon="6.98025">
        <ele>702.38</ele>
        <time>1970-01-01T00:04:17.000Z</time>
      </trkpt>
      <trkpt lat="47.75139" lon="6.98028">
        <ele>699.977</ele>
        <time>1970-01-01T00:04:18.000Z</time>
      </trkpt>
      <trkpt lat="47.75145" lon="6.98043">
        <ele>698.535</ele>
        <time>1970-01-01T00:04:19.000Z</time>
      </trkpt>
      <trkpt lat="47.75146" lon="6.98068">
        <ele>693.248</ele>
        <time>1970-01-01T00:04:20.000Z</time>
      </trkpt>
      <trkpt lat="47.75138" lon="6.98115">
        <ele>688.441</ele>
        <time>1970-01-01T00:04:21.000Z</time>
      </trkpt>
      <trkpt lat="47.75124" lon="6.98167">
        <ele>686.519</ele>
        <time>1970-01-01T00:04:22.000Z</time>
      </trkpt>
      <trkpt lat="47.75129" lon="6.98195">
        <ele>666.331</ele>
        <time>1970-01-01T00:04:23.000Z</time>
      </trkpt>
      <trkpt lat="47.75121" lon="6.98196">
        <ele>659.602</ele>
        <time>1970-01-01T00:04:24.000Z</time>
      </trkpt>
      <trkpt lat="47.7511" lon="6.98285">
        <ele>659.602</ele>
        <time>1970-01-01T00:04:25.000Z</time>
      </trkpt>
      <trkpt lat="47.75118" lon="6.98303">
        <ele>659.602</ele>
        <time>1970-01-01T00:04:26.000Z</time>
      </trkpt>
      <trkpt lat="47.75152" lon="6.98324">
        <ele>648.546</ele>
        <time>1970-01-01T00:04:27.000Z</time>
      </trkpt>
      <trkpt lat="47.75154" lon="6.98314">
        <ele>651.911</ele>
        <time>1970-01-01T00:04:28.000Z</time>
      </trkpt>
      <trkpt lat="47.75142" lon="6.98344">
        <ele>651.911</ele>
        <time>1970-01-01T00:04:29.000Z</time>
      </trkpt>
      <trkpt lat="47.75139" lon="6.98338">
        <ele>647.104</ele>
        <time>1970-01-01T00:04:30.000Z</time>
      </trkpt>
      <trkpt lat="47.75132" lon="6.98338">
        <ele>641.817</ele>
        <time>1970-01-01T00:04:31.000Z</time>
      </trkpt>
      <trkpt lat="47.75145" lon="6.98338">
        <ele>638.934</ele>
        <time>1970-01-01T00:04:32.000Z</time>
      </trkpt>
      <trkpt lat="47.75192" lon="6.98417">
        <ele>636.05</ele>
        <time>1970-01-01T00:04:33.000Z</time>
      </trkpt>
      <trkpt lat="47.75218" lon="6.98441">
        <ele>631.243</ele>
        <time>1970-01-01T00:04:34.000Z</time>
      </trkpt>
      <trkpt lat="47.75219" lon="6.98456">
        <ele>622.591</ele>
        <time>1970-01-01T00:04:35.000Z</time>
      </trkpt>
      <trkpt lat="47.75232" lon="6.98484">
        <ele>618.746</ele>
        <time>1970-01-01T00:04:36.000Z</time>
      </trkpt>
      <trkpt lat="47.75275" lon="6.98529">
        <ele>611.055</ele>
        <time>1970-01-01T00:04:37.000Z</time>
      </trkpt>
      <trkpt lat="47.7528" lon="6.98553">
        <ele>600.481</ele>
        <time>1970-01-01T00:04:38.000Z</time>
      </trkpt>
      <trkpt lat="47.75347" lon="6.98636">
        <ele>572.122</ele>
        <time>1970-01-01T00:04:39.000Z</time>
      </trkpt>
      <trkpt lat="47.75355" lon="6.98699">
        <ele>561.547</ele>
        <time>1970-01-01T00:04:40.000Z</time>
      </trkpt>
      <trkpt lat="47.75364" lon="6.98714">
        <ele>561.547</ele>
        <time>1970-01-01T00:04:41.000Z</time>
      </trkpt>
      <trkpt lat="47.75359" lon="6.98744">
        <ele>559.144</ele>
        <time>1970-01-01T00:04:42.000Z</time>
      </trkpt>
      <trkpt lat="47.7537" lon="6.9878">
        <ele>557.702</ele>
        <time>1970-01-01T00:04:43.000Z</time>
      </trkpt>
      <trkpt lat="47.75367" lon="6.98799">
        <ele>544.244</ele>
        <time>1970-01-01T00:04:44.000Z</time>
      </trkpt>
      <trkpt lat="47.75381" lon="6.98826">
        <ele>544.244</ele>
        <time>1970-01-01T00:04:45.000Z</time>
      </trkpt>
      <trkpt lat="47.75371" lon="6.98886">
        <ele>542.802</ele>
        <time>1970-01-01T00:04:46.000Z</time>
      </trkpt>
      <trkpt lat="47.75353" lon="6.98916">
        <ele>529.343</ele>
        <time>1970-01-01T00:04:47.000Z</time>
      </trkpt>
      <trkpt lat="47.75354" lon="6.98932">
        <ele>528.382</ele>
        <time>1970-01-01T00:04:48.000Z</time>
      </trkpt>
      <trkpt lat="47.75378" lon="6.98986">
        <ele>511.078</ele>
        <time>1970-01-01T00:04:49.000Z</time>
      </trkpt>
      <trkpt lat="47.75391" lon="6.9899">
        <ele>511.078</ele>
        <time>1970-01-01T00:04:50.000Z</time>
      </trkpt>
      <trkpt lat="47.75397" lon="6.99001">
        <ele>511.078</ele>
        <time>1970-01-01T00:04:51.000Z</time>
      </trkpt>
      <trkpt lat="47.75416" lon="6.99006">
        <ele>511.078</ele>
        <time>1970-01-01T00:04:52.000Z</time>
      </trkpt>
      <trkpt lat="47.75427" lon="6.99025">
        <ele>513.001</ele>
        <time>1970-01-01T00:04:53.000Z</time>
      </trkpt>
      <trkpt lat="47.75399" lon="6.99081">
        <ele>513.001</ele>
        <time>1970-01-01T00:04:54.000Z</time>
      </trkpt>
      <trkpt lat="47.75391" lon="6.99119">
        <ele>511.078</ele>
        <time>1970-01-01T00:04:55.000Z</time>
      </trkpt>
      <trkpt lat="47.75394" lon="6.99137">
        <ele>507.233</ele>
        <time>1970-01-01T00:04:56.000Z</time>
      </trkpt>
      <trkpt lat="47.75414" lon="6.9916">
        <ele>503.387</ele>
        <time>1970-01-01T00:04:57.000Z</time>
      </trkpt>
      <trkpt lat="47.75433" lon="6.99201">
        <ele>500.504</ele>
        <time>1970-01-01T00:04:58.000Z</time>
      </trkpt>
      <trkpt lat="47.7546" lon="6.99208">
        <ele>500.504</ele>
        <time>1970-01-01T00:04:59.000Z</time>
      </trkpt>
      <trkpt lat="47.75475" lon="6.99217">
        <ele>500.504</ele>
        <time>1970-01-01T00:05:00.000Z</time>
      </trkpt>
      <trkpt lat="47.75501" lon="6.99256">
        <ele>499.542</ele>
        <time>1970-01-01T00:05:01.000Z</time>
      </trkpt>
      <trkpt lat="47.75555" lon="6.9931">
        <ele>476.471</ele>
        <time>1970-01-01T00:05:02.000Z</time>
      </trkpt>
      <trkpt lat="47.75587" lon="6.99353">
        <ele>473.587</ele>
        <time>1970-01-01T00:05:03.000Z</time>
      </trkpt>
      <trkpt lat="47.75586" lon="6.9939">
        <ele>470.222</ele>
        <time>1970-01-01T00:05:04.000Z</time>
      </trkpt>
      <trkpt lat="47.75591" lon="6.99431">
        <ele>467.338</ele>
        <time>1970-01-01T00:05:05.000Z</time>
      </trkpt>
      <trkpt lat="47.75627" lon="6.99474">
        <ele>466.377</ele>
        <time>1970-01-01T00:05:06.000Z</time>
      </trkpt>
      <trkpt lat="47.75634" lon="6.995">
        <ele>466.377</ele>
        <time>1970-01-01T00:05:07.000Z</time>
      </trkpt>
      <trkpt lat="47.7566" lon="6.99538">
        <ele>463.012</ele>
        <time>1970-01-01T00:05:08.000Z</time>
      </trkpt>
      <trkpt lat="47.75661" lon="6.99607">
        <ele>459.648</ele>
        <time>1970-01-01T00:05:09.000Z</time>
      </trkpt>
      <trkpt lat="47.75667" lon="6.99645">
        <ele>457.244</ele>
        <time>1970-01-01T00:05:10.000Z</time>
      </trkpt>
      <trkpt lat="47.75679" lon="6.99673">
        <ele>456.283</ele>
        <time>1970-01-01T00:05:11.000Z</time>
      </trkpt>
      <trkpt lat="47.75685" lon="6.99731">
        <ele>454.841</ele>
        <time>1970-01-01T00:05:12.000Z</time>
      </trkpt>
      <trkpt lat="47.75697" lon="6.9975">
        <ele>454.36</ele>
        <time>1970-01-01T00:05:13.000Z</time>
      </trkpt>
      <trkpt lat="47.75698" lon="6.99788">
        <ele>453.399</ele>
        <time>1970-01-01T00:05:14.000Z</time>
      </trkpt>
      <trkpt lat="47.7569" lon="6.99803">
        <ele>450.996</ele>
        <time>1970-01-01T00:05:15.000Z</time>
      </trkpt>
      <trkpt lat="47.75692" lon="6.9986">
        <ele>447.631</ele>
        <time>1970-01-01T00:05:16.000Z</time>
      </trkpt>
      <trkpt lat="47.75664" lon="6.99965">
        <ele>447.15</ele>
        <time>1970-01-01T00:05:17.000Z</time>
      </trkpt>
      <trkpt lat="47.75677" lon="7.00036">
        <ele>435.615</ele>
        <time>1970-01-01T00:05:18.000Z</time>
      </trkpt>
      <trkpt lat="47.75676" lon="7.00085">
        <ele>435.134</ele>
        <time>1970-01-01T00:05:19.000Z</time>
      </trkpt>
      <trkpt lat="47.75685" lon="7.00092">
        <ele>428.405</ele>
        <time>1970-01-01T00:05:20.000Z</time>
      </trkpt>
      <trkpt lat="47.75675" lon="7.00089">
        <ele>428.405</ele>
        <time>1970-01-01T00:05:21.000Z</time>
      </trkpt>
      <trkpt lat="47.75685" lon="7.00113">
        <ele>429.366</ele>
        <time>1970-01-01T00:05:22.000Z</time>
      </trkpt>
      <trkpt lat="47.75682" lon="7.00138">
        <ele>428.405</ele>
        <time>1970-01-01T00:05:23.000Z</time>
      </trkpt>
      <trkpt lat="47.75587" lon="7.0034">
        <ele>426.001</ele>
        <time>1970-01-01T00:05:24.000Z</time>
      </trkpt>
      <trkpt lat="47.75562" lon="7.00362">
        <ele>426.001</ele>
        <time>1970-01-01T00:05:25.000Z</time>
      </trkpt>
      <trkpt lat="47.7555" lon="7.00433">
        <ele>425.04</ele>
        <time>1970-01-01T00:05:26.000Z</time>
      </trkpt>
      <trkpt lat="47.75557" lon="7.00469">
        <ele>425.04</ele>
        <time>1970-01-01T00:05:27.000Z</time>
      </trkpt>
      <trkpt lat="47.75544" lon="7.00515">
        <ele>426.001</ele>
        <time>1970-01-01T00:05:28.000Z</time>
      </trkpt>
      <trkpt lat="47.75546" lon="7.00568">
        <ele>426.963</ele>
        <time>1970-01-01T00:05:29.000Z</time>
      </trkpt>
      <trkpt lat="47.75541" lon="7.00628">
        <ele>426.963</ele>
        <time>1970-01-01T00:05:30.000Z</time>
      </trkpt>
      <trkpt lat="47.75548" lon="7.00644">
        <ele>426.963</ele>
        <time>1970-01-01T00:05:31.000Z</time>
      </trkpt>
      <trkpt lat="47.75534" lon="7.00758">
        <ele>426.963</ele>
        <time>1970-01-01T00:05:32.000Z</time>
      </trkpt>
      <trkpt lat="47.7554" lon="7.00789">
        <ele>419.272</ele>
        <time>1970-01-01T00:05:33.000Z</time>
      </trkpt>
      <trkpt lat="47.7556" lon="7.00785">
        <ele>417.83</ele>
        <time>1970-01-01T00:05:34.000Z</time>
      </trkpt>
      <trkpt lat="47.75589" lon="7.00789">
        <ele>416.388</ele>
        <time>1970-01-01T00:05:35.000Z</time>
      </trkpt>
      <trkpt lat="47.7561" lon="7.00823">
        <ele>413.504</ele>
        <time>1970-01-01T00:05:36.000Z</time>
      </trkpt>
      <trkpt lat="47.75625" lon="7.00834">
        <ele>408.698</ele>
        <time>1970-01-01T00:05:37.000Z</time>
      </trkpt>
      <trkpt lat="47.75668" lon="7.00967">
        <ele>408.698</ele>
        <time>1970-01-01T00:05:38.000Z</time>
      </trkpt>
      <trkpt lat="47.75688" lon="7.00989">
        <ele>408.698</ele>
        <time>1970-01-01T00:05:39.000Z</time>
      </trkpt>
      <trkpt lat="47.75695" lon="7.01002">
        <ele>404.372</ele>
        <time>1970-01-01T00:05:40.000Z</time>
      </trkpt>
      <trkpt lat="47.75691" lon="7.01013">
        <ele>408.698</ele>
        <time>1970-01-01T00:05:41.000Z</time>
      </trkpt>
      <trkpt lat="47.75719" lon="7.01114">
        <ele>408.217</ele>
        <time>1970-01-01T00:05:42.000Z</time>
      </trkpt>
      <trkpt lat="47.75742" lon="7.01129">
        <ele>401.007</ele>
        <time>1970-01-01T00:05:43.000Z</time>
      </trkpt>
      <trkpt lat="47.7573" lon="7.01133">
        <ele>401.007</ele>
        <time>1970-01-01T00:05:44.000Z</time>
      </trkpt>
      <trkpt lat="47.75724" lon="7.01212">
        <ele>408.217</ele>
        <time>1970-01-01T00:05:45.000Z</time>
      </trkpt>
      <trkpt lat="47.75717" lon="7.0123">
        <ele>400.526</ele>
        <time>1970-01-01T00:05:46.000Z</time>
      </trkpt>
      <trkpt lat="47.75718" lon="7.01244">
        <ele>399.565</ele>
        <time>1970-01-01T00:05:47.000Z</time>
      </trkpt>
      <trkpt lat="47.757" lon="7.01272">
        <ele>400.526</ele>
        <time>1970-01-01T00:05:48.000Z</time>
      </trkpt>
      <trkpt lat="47.75695" lon="7.0129">
        <ele>400.526</ele>
        <time>1970-01-01T00:05:49.000Z</time>
      </trkpt>
      <trkpt lat="47.75695" lon="7.01373">
        <ele>399.565</ele>
        <time>1970-01-01T00:05:50.000Z</time>
      </trkpt>
      <trkpt lat="47.75679" lon="7.01386">
        <ele>397.642</ele>
        <time>1970-01-01T00:05:51.000Z</time>
      </trkpt>
      <trkpt lat="47.75674" lon="7.01402">
        <ele>397.642</ele>
        <time>1970-01-01T00:05:52.000Z</time>
      </trkpt>
      <trkpt lat="47.75623" lon="7.01461">
        <ele>397.642</ele>
        <time>1970-01-01T00:05:53.000Z</time>
      </trkpt>
      <trkpt lat="47.75546" lon="7.01714">
        <ele>393.317</ele>
        <time>1970-01-01T00:05:54.000Z</time>
      </trkpt>
      <trkpt lat="47.75544" lon="7.01736">
        <ele>390.433</ele>
        <time>1970-01-01T00:05:55.000Z</time>
      </trkpt>
      <trkpt lat="47.75528" lon="7.01804">
        <ele>390.433</ele>
        <time>1970-01-01T00:05:56.000Z</time>
      </trkpt>
      <trkpt lat="47.75533" lon="7.01841">
        <ele>389.471</ele>
        <time>1970-01-01T00:05:57.000Z</time>
      </trkpt>
      <trkpt lat="47.75546" lon="7.01858">
        <ele>384.665</ele>
        <time>1970-01-01T00:05:58.000Z</time>
      </trkpt>
      <trkpt lat="47.75565" lon="7.01858">
        <ele>384.665</ele>
        <time>1970-01-01T00:05:59.000Z</time>
      </trkpt>
      <trkpt lat="47.75622" lon="7.01839">
        <ele>382.742</ele>
        <time>1970-01-01T00:06:00.000Z</time>
      </trkpt>
      <trkpt lat="47.75635" lon="7.01848">
        <ele>382.742</ele>
        <time>1970-01-01T00:06:01.000Z</time>
      </trkpt>
      <trkpt lat="47.75669" lon="7.01837">
        <ele>384.665</ele>
        <time>1970-01-01T00:06:02.000Z</time>
      </trkpt>
      <trkpt lat="47.75699" lon="7.01853">
        <ele>382.742</ele>
        <time>1970-01-01T00:06:03.000Z</time>
      </trkpt>
      <trkpt lat="47.75721" lon="7.01886">
        <ele>380.819</ele>
        <time>1970-01-01T00:06:04.000Z</time>
      </trkpt>
      <trkpt lat="47.75729" lon="7.01942">
        <ele>376.494</ele>
        <time>1970-01-01T00:06:05.000Z</time>
      </trkpt>
      <trkpt lat="47.75743" lon="7.01959">
        <ele>375.532</ele>
        <time>1970-01-01T00:06:06.000Z</time>
      </trkpt>
      <trkpt lat="47.75756" lon="7.01997">
        <ele>375.532</ele>
        <time>1970-01-01T00:06:07.000Z</time>
      </trkpt>
      <trkpt lat="47.75776" lon="7.02006">
        <ele>376.494</ele>
        <time>1970-01-01T00:06:08.000Z</time>
      </trkpt>
      <trkpt lat="47.75787" lon="7.02004">
        <ele>375.532</ele>
        <time>1970-01-01T00:06:09.000Z</time>
      </trkpt>
      <trkpt lat="47.75796" lon="7.01979">
        <ele>374.571</ele>
        <time>1970-01-01T00:06:10.000Z</time>
      </trkpt>
      <trkpt lat="47.75802" lon="7.01989">
        <ele>371.206</ele>
        <time>1970-01-01T00:06:11.000Z</time>
      </trkpt>
      <trkpt lat="47.75798" lon="7.01999">
        <ele>360.151</ele>
        <time>1970-01-01T00:06:12.000Z</time>
      </trkpt>
    </trkseg>
  </trk>
</gpx>